createdAt,value
2019-05-09T00:04:39.902Z,84.20
2019-05-09T00:09:45.387Z,84.60
2019-05-09T00:14:50.802Z,84.70
2019-05-09T00:19:58.442Z,84.90
2019-05-09T00:25:03.993Z,85.00
2019-05-09T00:30:09.802Z,85.30
2019-05-09T00:35:46.299Z,85.40
2019-05-09T00:40:58.391Z,85.60
2019-05-09T00:46:18.125Z,85.90
2019-05-09T00:51:23.589Z,86.10
2019-05-09T00:56:29.011Z,86.00
2019-05-09T01:01:34.556Z,86.00
2019-05-09T01:06:40.054Z,85.70
2019-05-09T01:11:45.469Z,85.60
2019-05-09T01:16:50.888Z,85.60
2019-05-09T01:21:56.518Z,85.70
2019-05-09T01:27:03.638Z,85.90
2019-05-09T01:32:16.326Z,86.10
2019-05-09T01:37:23.717Z,86.30
2019-05-09T01:42:28.871Z,86.10
2019-05-09T01:47:34.440Z,86.10
2019-05-09T01:52:40.122Z,85.90
2019-05-09T01:57:47.811Z,85.70
2019-05-09T02:02:54.074Z,85.60
2019-05-09T02:07:59.656Z,85.50
2019-05-09T02:13:05.266Z,85.40
2019-05-09T02:18:16.833Z,85.30
2019-05-09T02:23:23.334Z,85.20
2019-05-09T02:28:29.109Z,85.00
2019-05-09T02:33:34.903Z,84.90
2019-05-09T02:38:40.591Z,85.00
2019-05-09T02:43:49.273Z,85.20
2019-05-09T02:48:53.124Z,85.30
2019-05-09T02:53:58.886Z,85.60
2019-05-09T02:59:11.619Z,85.80
2019-05-09T03:04:18.900Z,86.10
2019-05-09T03:09:24.290Z,86.50
2019-05-09T03:14:29.740Z,86.80
2019-05-09T03:19:38.413Z,86.80
2019-05-09T03:24:42.427Z,86.70
2019-05-09T03:29:51.968Z,86.80
2019-05-09T03:34:58.081Z,86.80
2019-05-09T03:40:03.568Z,86.60
2019-05-09T03:45:10.641Z,86.40
2019-05-09T03:50:17.984Z,86.40
2019-05-09T03:55:30.633Z,86.30
2019-05-09T04:00:37.569Z,86.20
2019-05-09T04:05:55.328Z,86.10
2019-05-09T04:10:51.816Z,86.10
2019-05-09T04:15:58.252Z,86.20
2019-05-09T04:21:04.172Z,86.20
2019-05-09T04:26:19.289Z,85.90
2019-05-09T04:31:24.760Z,85.70
2019-05-09T04:36:38.963Z,85.40
2019-05-09T04:41:44.395Z,85.10
2019-05-09T04:46:54.127Z,84.70
2019-05-09T04:51:58.381Z,84.70
2019-05-09T04:57:03.961Z,84.20
2019-05-09T05:02:34.484Z,84.00
2019-05-09T05:07:39.923Z,83.50
2019-05-09T05:12:45.426Z,82.60
2019-05-09T05:17:50.883Z,81.90
2019-05-09T05:23:02.055Z,81.40
2019-05-09T05:28:08.558Z,80.60
2019-05-09T05:33:33.161Z,79.60
2019-05-09T05:38:38.772Z,77.30
2019-05-09T05:43:44.891Z,71.50
2019-05-09T05:48:51.943Z,65.50
2019-05-09T05:53:57.498Z,57.30
2019-05-09T05:59:03.098Z,56.60
2019-05-09T06:04:08.557Z,56.40
2019-05-09T06:09:13.963Z,51.80
2019-05-09T06:14:19.420Z,49.50
2019-05-09T06:19:25.233Z,47.00
2019-05-09T06:24:30.702Z,43.50
2019-05-09T06:29:38.573Z,39.30
2019-05-09T06:34:43.916Z,38.60
2019-05-09T06:39:49.635Z,36.30
2019-05-09T06:45:07.587Z,38.30
2019-05-09T06:50:14.928Z,37.60
2019-05-09T06:55:20.627Z,34.30
2019-05-09T07:00:45.008Z,31.00
2019-05-09T07:06:02.391Z,29.00
2019-05-09T07:11:08.175Z,29.40
2019-05-09T07:16:13.596Z,32.20
2019-05-09T07:21:19.157Z,35.10
2019-05-09T07:26:30.022Z,37.50
2019-05-09T07:31:47.976Z,40.10
2019-05-09T07:36:53.250Z,42.70
2019-05-09T07:41:58.884Z,44.00
2019-05-09T07:47:07.605Z,44.90
2019-05-09T07:52:13.235Z,44.20
2019-05-09T07:57:18.882Z,44.20
2019-05-09T08:02:24.388Z,43.80
2019-05-09T08:07:29.881Z,44.40
2019-05-09T08:12:35.295Z,46.10
2019-05-09T08:17:40.873Z,47.80
2019-05-09T08:22:57.327Z,49.70
2019-05-09T08:27:53.620Z,50.10
2019-05-09T08:33:00.050Z,51.60
2019-05-09T08:38:08.285Z,52.70
2019-05-09T08:43:12.877Z,53.80
2019-05-09T08:48:18.478Z,53.90
2019-05-09T08:53:23.905Z,54.00
2019-05-09T08:58:29.530Z,54.70
2019-05-09T09:03:35.021Z,55.10
2019-05-09T09:08:40.461Z,55.40
2019-05-09T09:13:48.108Z,55.30
2019-05-09T09:18:53.219Z,55.40
2019-05-09T09:23:58.720Z,55.50
2019-05-09T09:29:04.209Z,55.40
2019-05-09T09:34:09.650Z,54.90
2019-05-09T09:39:15.098Z,54.40
2019-05-09T09:44:22.443Z,54.00
2019-05-09T09:49:29.390Z,54.10
2019-05-09T09:54:35.118Z,55.20
2019-05-09T09:59:48.470Z,56.00
2019-05-09T10:04:53.686Z,56.20
2019-05-09T10:09:59.104Z,56.20
2019-05-09T10:15:11.585Z,56.40
2019-05-09T10:20:21.874Z,56.50
2019-05-09T10:25:27.663Z,55.40
2019-05-09T10:30:34.865Z,54.50
2019-05-09T10:35:40.317Z,54.20
2019-05-09T10:40:48.298Z,53.90
2019-05-09T10:46:10.051Z,53.40
2019-05-09T10:51:15.532Z,53.50
2019-05-09T10:56:20.966Z,52.50
2019-05-09T11:01:29.197Z,51.70
2019-05-09T11:06:33.585Z,50.30
2019-05-09T11:11:39.257Z,48.90
2019-05-09T11:16:49.097Z,49.20
2019-05-09T11:21:51.959Z,49.80
2019-05-09T11:26:58.878Z,49.80
2019-05-09T11:32:04.462Z,50.60
2019-05-09T11:37:09.985Z,50.90
2019-05-09T11:42:17.709Z,51.30
2019-05-09T11:47:33.700Z,50.90
2019-05-09T11:52:31.717Z,50.00
2019-05-09T11:57:38.517Z,48.60
2019-05-09T12:02:44.102Z,47.80
2019-05-09T12:07:49.495Z,47.10
2019-05-09T12:12:57.468Z,46.50
2019-05-09T12:18:08.383Z,46.60
2019-05-09T12:23:09.291Z,47.40
2019-05-09T12:28:14.760Z,47.90
2019-05-09T12:33:20.306Z,48.00
2019-05-09T12:38:27.772Z,47.60
2019-05-09T12:43:33.436Z,47.50
2019-05-09T12:48:39.082Z,48.10
2019-05-09T12:53:44.675Z,49.50
2019-05-09T12:58:50.166Z,50.80
2019-05-09T13:03:58.057Z,51.70
2019-05-09T13:09:02.859Z,52.40
2019-05-09T13:14:09.957Z,52.70
2019-05-09T13:19:18.505Z,52.60
2019-05-09T13:24:24.231Z,51.70
2019-05-09T13:29:29.743Z,50.80
2019-05-09T13:34:37.819Z,50.10
2019-05-09T13:39:42.380Z,49.70
2019-05-09T13:44:47.818Z,49.70
2019-05-09T13:49:55.947Z,49.40
2019-05-09T13:55:00.722Z,49.30
2019-05-09T14:00:08.706Z,49.20
2019-05-09T14:05:13.462Z,49.40
2019-05-09T14:10:18.918Z,50.30
2019-05-09T14:15:24.343Z,51.40
2019-05-09T14:20:29.780Z,52.30
2019-05-09T14:25:37.911Z,52.90
2019-05-09T14:30:42.396Z,52.90
2019-05-09T14:35:47.965Z,52.40
2019-05-09T14:40:53.478Z,52.20
2019-05-09T14:45:58.939Z,51.50
2019-05-09T14:51:04.429Z,51.10
2019-05-09T14:56:09.902Z,50.90
2019-05-09T15:01:15.310Z,50.80
2019-05-09T15:06:20.729Z,50.60
2019-05-09T15:11:28.224Z,50.80
2019-05-09T15:16:33.971Z,51.10
2019-05-09T15:21:39.634Z,51.50
2019-05-09T15:26:45.101Z,51.70
2019-05-09T15:31:54.123Z,51.50
2019-05-09T15:36:58.331Z,51.60
2019-05-09T15:42:04.281Z,52.50
2019-05-09T15:47:18.201Z,52.90
2019-05-09T15:52:23.499Z,53.50
2019-05-09T15:57:29.034Z,54.20
2019-05-09T16:02:34.481Z,54.60
2019-05-09T16:07:40.101Z,54.80
2019-05-09T16:12:45.539Z,55.30
2019-05-09T16:17:51.119Z,55.20
2019-05-09T16:22:57.278Z,54.90
2019-05-09T16:28:02.759Z,54.80
2019-05-09T16:33:08.319Z,55.40
2019-05-09T16:38:13.783Z,54.90
2019-05-09T16:43:19.211Z,55.10
2019-05-09T16:48:24.640Z,55.60
2019-05-09T16:53:30.050Z,55.70
2019-05-09T16:58:37.431Z,55.90
2019-05-09T17:03:42.762Z,55.60
2019-05-09T17:08:48.374Z,55.60
2019-05-09T17:13:53.931Z,55.90
2019-05-09T17:18:59.357Z,55.80
2019-05-09T17:24:08.119Z,55.70
2019-05-09T17:29:13.313Z,55.60
2019-05-09T17:34:18.729Z,55.40
2019-05-09T17:39:24.167Z,55.20
2019-05-09T17:44:29.638Z,55.20
2019-05-09T17:49:37.345Z,55.50
2019-05-09T17:54:42.202Z,56.00
2019-05-09T17:59:48.762Z,56.20
2019-05-09T18:04:54.681Z,56.50
2019-05-09T18:10:00.120Z,56.50
2019-05-09T18:15:07.682Z,56.40
2019-05-09T18:20:12.951Z,56.50
2019-05-09T18:25:18.859Z,56.70
2019-05-09T18:30:24.320Z,57.30
2019-05-09T18:35:31.041Z,57.40
2019-05-09T18:40:36.667Z,58.00
2019-05-09T18:45:42.137Z,59.80
2019-05-09T18:50:47.671Z,62.10
2019-05-09T18:55:53.109Z,64.50
2019-05-09T19:00:58.541Z,66.20
2019-05-09T19:06:03.974Z,67.50
2019-05-09T19:11:09.431Z,68.80
2019-05-09T19:16:39.033Z,69.90
2019-05-09T19:21:47.862Z,70.90
2019-05-09T19:26:53.341Z,71.70
2019-05-09T19:31:58.841Z,72.60
2019-05-09T19:37:04.304Z,73.10
2019-05-09T19:42:09.876Z,74.10
2019-05-09T19:47:15.326Z,74.60
2019-05-09T19:52:21.128Z,75.40
2019-05-09T19:57:26.973Z,75.80
2019-05-09T20:02:32.547Z,76.30
2019-05-09T20:07:37.945Z,76.80
2019-05-09T20:12:49.087Z,77.10
2019-05-09T20:17:54.693Z,77.50
2019-05-09T20:23:00.262Z,78.10
2019-05-09T20:28:08.657Z,78.90
2019-05-09T20:33:14.171Z,80.00
2019-05-09T20:38:19.766Z,80.40
2019-05-09T20:43:25.449Z,80.50
2019-05-09T20:48:31.093Z,80.60
2019-05-09T20:53:36.726Z,81.00
2019-05-09T20:58:42.398Z,81.60
2019-05-09T21:03:59.746Z,81.50
2019-05-09T21:08:55.376Z,81.30
2019-05-09T21:14:01.011Z,81.00
2019-05-09T21:19:06.897Z,80.90
2019-05-09T21:24:12.516Z,81.00
2019-05-09T21:29:18.167Z,81.00
2019-05-09T21:34:23.797Z,81.30
2019-05-09T21:39:29.316Z,81.40
2019-05-09T21:44:34.736Z,81.60
2019-05-09T21:49:40.169Z,82.00
2019-05-09T21:54:45.579Z,82.10
2019-05-09T21:59:51.164Z,82.10
2019-05-09T22:04:56.615Z,82.30
2019-05-09T22:10:02.120Z,82.50
2019-05-09T22:15:07.541Z,82.60
2019-05-09T22:20:13.054Z,82.40
2019-05-09T22:25:18.838Z,82.60
2019-05-09T22:30:24.238Z,82.70
2019-05-09T22:35:29.682Z,83.00
2019-05-09T22:40:35.129Z,83.00
2019-05-09T22:45:40.632Z,83.10
2019-05-09T22:50:46.078Z,82.90
2019-05-09T22:55:51.825Z,83.00
2019-05-09T23:00:57.324Z,82.90
2019-05-09T23:06:03.062Z,83.00
2019-05-09T23:11:08.536Z,83.10
2019-05-09T23:16:14.153Z,83.40
2019-05-09T23:21:19.641Z,83.30
2019-05-09T23:26:25.463Z,83.50
2019-05-09T23:31:36.448Z,84.30
2019-05-09T23:36:41.892Z,83.90
2019-05-09T23:41:47.358Z,84.60
2019-05-09T23:46:52.857Z,84.60
2019-05-09T23:51:58.319Z,84.60
2019-05-09T23:57:21.156Z,84.40
